Time;durP1;ratioP1;P1;durP2;ratioP2;P2;SDS_P1;SDS_P2;PMS_P1;PMS_P2;Temp;Humidity;BMP_temperature;BMP_pressure;BME280_temperature;BME280_humidity;BME280_pressure;Samples;Min_cycle;Max_cycle;Signal;HPM_P1;HPM_P2
2022/03/30 00:01:51;;;;;;;31.10;13.43;;;;;;;0.84;77.66;99527.58;3537047;81;98306;-83
2022/03/30 00:06:52;;;;;;;30.93;12.93;;;;;;;0.94;77.45;99533.36;3543135;82;98713;-83
2022/03/30 00:11:53;;;;;;;32.70;13.27;;;;;;;0.91;77.64;99542.16;3532171;82;98331;-84
2022/03/30 00:16:54;;;;;;;29.15;11.03;;;;;;;0.89;77.86;99538.21;3531910;82;98815;-84
2022/03/30 00:21:55;;;;;;;29.92;11.50;;;;;;;0.87;77.92;99541.80;3534859;82;98837;-83
2022/03/30 00:26:56;;;;;;;28.42;12.55;;;;;;;0.84;78.32;99541.13;3539802;81;98684;-83
2022/03/30 00:31:57;;;;;;;22.00;9.17;;;;;;;0.80;78.83;99545.06;3543283;81;98633;-84
2022/03/30 00:36:58;;;;;;;30.23;10.43;;;;;;;0.75;78.63;99546.63;3551096;82;98524;-83
2022/03/30 00:41:59;;;;;;;24.83;10.27;;;;;;;0.74;79.38;99541.54;3533103;82;98760;-84
2022/03/30 00:47:00;;;;;;;24.73;9.83;;;;;;;0.68;78.93;99547.73;3527787;82;98539;-83
2022/03/30 00:52:01;;;;;;;31.53;10.60;;;;;;;0.66;78.85;99544.55;3532313;82;98643;-83
2022/03/30 00:57:02;;;;;;;21.57;10.30;;;;;;;0.61;78.64;99539.34;3539023;81;98249;-83
2022/03/30 01:02:04;;;;;;;24.37;9.88;;;;;;;0.58;78.72;99531.91;3500435;84;99043;-83
2022/03/30 01:07:05;;;;;;;24.67;8.80;;;;;;;0.53;79.37;99533.46;3503454;83;98511;-83
2022/03/30 01:12:10;;;;;;;22.67;8.50;;;;;;;0.51;79.19;99530.27;3506038;81;98220;-84
2022/03/30 01:17:12;;;;;;;27.07;9.83;;;;;;;0.50;79.62;99530.63;3500616;83;98237;-83
2022/03/30 01:22:13;;;;;;;23.10;8.65;;;;;;;0.50;79.33;99523.28;3500180;83;98245;-83
2022/03/30 01:27:14;;;;;;;25.07;9.37;;;;;;;0.51;79.56;99521.37;3506621;82;98521;-83
2022/03/30 01:32:27;;;;;;;24.27;9.30;;;;;;;0.52;79.88;99520.25;3500651;83;98582;-83
2022/03/30 01:37:30;;;;;;;26.20;9.53;;;;;;;0.52;79.67;99515.64;3497441;83;98569;-82
2022/03/30 01:42:32;;;;;;;27.20;9.40;;;;;;;0.54;80.40;99520.70;3497496;83;98470;-83
2022/03/30 01:47:34;;;;;;;26.17;9.50;;;;;;;0.54;80.23;99517.44;3503889;83;25846;-82
2022/03/30 01:52:36;;;;;;;24.90;9.50;;;;;;;0.54;80.29;99522.86;3512726;82;98336;-84
2022/03/30 01:57:37;;;;;;;23.27;8.20;;;;;;;0.54;80.80;99511.22;3516445;81;98293;-83
2022/03/30 02:02:40;;;;;;;28.93;10.27;;;;;;;0.53;80.87;99515.06;3536691;81;98498;-83
2022/03/30 02:07:40;;;;;;;27.17;9.77;;;;;;;0.54;80.80;99510.67;3552138;82;98700;-83
2022/03/30 02:12:42;;;;;;;22.67;8.08;;;;;;;0.55;80.98;99512.25;3536912;82;98708;-83
2022/03/30 02:17:43;;;;;;;23.00;7.93;;;;;;;0.58;80.84;99505.38;3556189;82;34888;-82
2022/03/30 02:22:43;;;;;;;19.32;8.23;;;;;;;0.60;80.67;99495.03;3530181;81;98286;-83
2022/03/30 02:27:44;;;;;;;25.90;7.77;;;;;;;0.59;80.53;99494.23;3540110;82;98436;-83
2022/03/30 02:32:47;;;;;;;21.40;7.10;;;;;;;0.60;80.54;99495.80;3529278;82;98414;-83
2022/03/30 02:37:49;;;;;;;18.50;7.17;;;;;;;0.62;80.59;99497.61;3535081;82;98493;-83
2022/03/30 02:42:49;;;;;;;22.40;6.07;;;;;;;0.62;80.86;99493.54;3532089;82;98434;-83
2022/03/30 02:53:11;;;;;;;21.97;7.43;;;;;;;0.49;80.67;99471.62;3516259;82;98270;-83
2022/03/30 02:58:12;;;;;;;19.43;7.67;;;;;;;0.58;80.42;99490.49;3539749;82;98267;-83
2022/03/30 03:03:13;;;;;;;21.62;6.83;;;;;;;0.56;80.80;99502.23;3538634;82;98189;-83
2022/03/30 03:08:14;;;;;;;23.23;7.63;;;;;;;0.54;80.87;99490.37;3544830;82;98846;-82
2022/03/30 03:13:17;;;;;;;16.50;6.33;;;;;;;0.48;81.41;99494.41;3536847;81;98884;-82
2022/03/30 03:18:19;;;;;;;19.40;5.57;;;;;;;0.46;81.39;99499.38;3561746;82;98527;-83
2022/03/30 03:23:21;;;;;;;19.05;6.03;;;;;;;0.49;80.90;99495.99;3531702;82;98149;-83
2022/03/30 03:28:22;;;;;;;16.30;5.40;;;;;;;0.53;80.73;99498.81;3533101;82;98282;-83
2022/03/30 03:33:23;;;;;;;18.77;5.90;;;;;;;0.55;80.66;99504.13;3545902;82;98492;-83
2022/03/30 03:38:24;;;;;;;18.35;6.12;;;;;;;0.57;80.87;99501.09;3540236;82;98599;-83
2022/03/30 03:43:25;;;;;;;16.40;6.17;;;;;;;0.59;81.26;99496.94;3559988;81;98606;-83
2022/03/30 03:48:26;;;;;;;17.43;6.53;;;;;;;0.58;81.24;99496.71;3547020;82;97719;-83
2022/03/30 03:53:27;;;;;;;25.53;7.70;;;;;;;0.58;81.42;99491.30;3557239;82;98189;-83
2022/03/30 03:58:28;;;;;;;24.73;7.77;;;;;;;0.61;81.21;99492.55;3540320;82;98204;-83
2022/03/30 04:03:29;;;;;;;19.73;7.50;;;;;;;0.63;81.47;99492.99;3539750;81;98513;-83
2022/03/30 04:08:29;;;;;;;25.60;7.10;;;;;;;0.65;81.37;99487.47;3536947;82;98445;-83
2022/03/30 04:13:31;;;;;;;18.70;7.03;;;;;;;0.69;81.17;99481.63;3547463;82;98444;-83
2022/03/30 04:18:32;;;;;;;18.23;7.13;;;;;;;0.72;81.16;99486.94;3535242;82;98521;-83
2022/03/30 04:23:33;;;;;;;19.05;6.62;;;;;;;0.72;81.20;99481.52;3524156;81;98339;-83
2022/03/30 04:28:35;;;;;;;21.87;6.92;;;;;;;0.71;81.08;99475.88;3526226;83;98422;-83
2022/03/30 04:33:36;;;;;;;16.75;5.50;;;;;;;0.68;81.03;99474.64;3539764;82;98449;-83
2022/03/30 04:38:37;;;;;;;19.43;7.27;;;;;;;0.64;80.86;99486.45;3524293;83;98592;-82
2022/03/30 04:43:39;;;;;;;15.63;4.90;;;;;;;0.57;81.16;99482.15;3520117;81;98419;-83
2022/03/30 04:48:40;;;;;;;13.13;5.20;;;;;;;0.51;81.23;99484.84;3525389;83;98535;-83
2022/03/30 04:53:41;;;;;;;18.27;6.40;;;;;;;0.48;81.19;99486.84;3532201;83;98246;-83
2022/03/30 04:58:42;;;;;;;16.60;6.40;;;;;;;0.44;81.03;99488.08;3550500;82;98248;-83
2022/03/30 05:03:42;;;;;;;18.30;6.00;;;;;;;0.42;81.21;99493.59;3521401;82;98415;-83
2022/03/30 05:08:44;;;;;;;18.70;6.07;;;;;;;0.42;81.33;99486.83;3535512;82;98446;-84
2022/03/30 05:13:45;;;;;;;19.13;5.47;;;;;;;0.41;81.47;99486.05;3548272;82;98596;-83
2022/03/30 05:18:46;;;;;;;18.73;6.23;;;;;;;0.44;81.65;99491.36;3545865;82;98423;-83
2022/03/30 05:23:46;;;;;;;22.50;7.77;;;;;;;0.45;82.26;99497.00;3551372;82;98532;-82
2022/03/30 05:28:47;;;;;;;19.13;7.27;;;;;;;0.48;82.24;99503.89;3558090;82;98413;-83
2022/03/30 05:33:48;;;;;;;16.37;6.70;;;;;;;0.51;82.56;99502.43;3552439;82;98489;-83
2022/03/30 05:38:50;;;;;;;19.13;6.50;;;;;;;0.54;82.67;99513.37;3569037;82;98532;-83
2022/03/30 05:43:51;;;;;;;21.30;8.40;;;;;;;0.61;82.99;99516.33;3537527;82;98627;-83
2022/03/30 05:48:52;;;;;;;19.97;11.27;;;;;;;0.66;83.31;99512.64;3554671;82;98560;-83
2022/03/30 05:53:53;;;;;;;21.53;10.50;;;;;;;0.70;83.62;99510.28;3559297;82;98426;-83
2022/03/30 05:58:54;;;;;;;63.90;26.67;;;;;;;0.79;83.78;99509.64;3545460;82;98558;-83
2022/03/30 06:03:55;;;;;;;32.60;13.20;;;;;;;0.90;83.92;99508.64;3517776;82;98514;-83
2022/03/30 06:08:56;;;;;;;20.90;8.00;;;;;;;1.01;83.83;99513.85;3523554;82;98660;-83
2022/03/30 06:13:58;;;;;;;18.77;6.07;;;;;;;1.13;84.12;99509.25;3507042;82;98524;-83
2022/03/30 06:18:59;;;;;;;19.70;6.00;;;;;;;1.25;84.41;99502.48;3515380;82;98537;-83
2022/03/30 06:24:01;;;;;;;16.50;5.60;;;;;;;1.53;84.45;99511.52;3515614;82;98222;-83
2022/03/30 06:29:02;;;;;;;18.97;6.23;;;;;;;1.74;84.42;99504.05;3514560;83;98290;-83
2022/03/30 06:34:03;;;;;;;14.78;5.67;;;;;;;2.23;83.54;99515.03;3506916;82;98362;-83
2022/03/30 06:39:06;;;;;;;15.33;5.73;;;;;;;2.23;83.54;99515.03;3523669;82;98613;-84
2022/03/30 06:44:07;;;;;;;17.33;6.03;;;;;;;2.42;83.08;99513.86;3495504;83;98625;-83
2022/03/30 06:49:09;;;;;;;26.50;7.10;;;;;;;2.65;82.71;99521.68;3512735;82;98446;-83
2022/03/30 06:54:10;;;;;;;19.50;5.93;;;;;;;2.85;82.44;99523.38;3511609;82;98419;-82
2022/03/30 06:59:13;;;;;;;14.73;4.90;;;;;;;3.07;82.26;99530.18;3512825;83;98087;-82
2022/03/30 07:04:14;;;;;;;20.07;4.97;;;;;;;3.30;82.26;99524.36;3521671;82;98301;-82
2022/03/30 07:14:34;;;;;;;16.62;4.42;;;;;;;3.76;81.52;99538.53;3533386;82;98864;-83
2022/03/30 07:19:37;;;;;;;14.83;4.37;;;;;;;3.97;80.98;99544.44;3539962;82;98689;-84
2022/03/30 07:24:38;;;;;;;16.40;5.30;;;;;;;4.13;80.71;99543.27;3542996;82;98522;-83
2022/03/30 07:29:39;;;;;;;11.93;3.37;;;;;;;4.34;80.21;99531.48;3544556;82;25862;-82
2022/03/30 07:34:40;;;;;;;17.93;3.50;;;;;;;4.55;79.40;99532.48;3541825;82;98383;-83
2022/03/30 07:39:41;;;;;;;13.50;2.93;;;;;;;4.73;78.61;99533.06;3539894;82;98248;-83
2022/03/30 07:44:42;;;;;;;9.27;2.33;;;;;;;4.90;77.90;99539.42;3531730;82;98547;-82
2022/03/30 07:49:43;;;;;;;11.57;3.00;;;;;;;5.10;77.44;99542.91;3545096;82;98292;-83
2022/03/30 07:54:44;;;;;;;9.10;3.00;;;;;;;5.25;75.76;99535.98;3534787;82;98535;-82
2022/03/30 07:59:45;;;;;;;8.58;2.80;;;;;;;5.42;75.16;99530.63;3540621;82;25979;-82
2022/03/30 08:04:46;;;;;;;8.30;2.50;;;;;;;5.60;74.18;99537.16;3556052;81;98199;-83
2022/03/30 08:09:47;;;;;;;10.53;2.80;;;;;;;5.77;73.34;99531.19;3547956;81;98099;-83
2022/03/30 08:14:48;;;;;;;11.05;2.40;;;;;;;5.98;72.02;99527.45;3552791;82;98069;-82
2022/03/30 08:19:49;;;;;;;5.83;2.20;;;;;;;6.11;70.62;99518.67;3554172;82;98440;-82
2022/03/30 08:24:50;;;;;;;6.33;1.80;;;;;;;6.33;70.40;99519.17;3549636;82;98895;-83
2022/03/30 08:29:53;;;;;;;7.67;2.33;;;;;;;6.56;69.24;99523.98;3561432;82;33227;-83
2022/03/30 08:34:56;;;;;;;7.80;2.08;;;;;;;6.84;68.35;99522.16;3560264;82;98152;-84
2022/03/30 08:39:58;;;;;;;5.40;2.23;;;;;;;7.10;66.21;99515.21;3566540;82;98153;-84
2022/03/30 08:45:00;;;;;;;6.80;2.17;;;;;;;7.47;67.71;99519.47;3554911;82;98142;-81
2022/03/30 08:50:03;;;;;;;7.10;2.10;;;;;;;7.97;66.35;99515.94;3556107;82;98238;-84
2022/03/30 08:55:06;;;;;;;4.40;1.50;;;;;;;8.59;63.91;99512.02;3516058;82;98353;-84
2022/03/30 09:00:17;;;;;;;5.20;1.93;;;;;;;9.15;64.47;99516.88;3537151;82;25386;-83
2022/03/30 09:05:22;;;;;;;8.50;1.53;;;;;;;9.95;64.30;99510.08;3528448;81;98200;-83
2022/03/30 09:10:27;;;;;;;6.93;2.33;;;;;;;10.72;62.91;99515.97;3543064;81;98293;-84
2022/03/30 09:15:29;;;;;;;6.70;1.87;;;;;;;11.48;61.74;99511.20;3534150;81;99098;-84
2022/03/30 09:20:30;;;;;;;7.93;2.37;;;;;;;12.18;58.93;99503.16;3556009;81;98677;-84
2022/03/30 09:25:33;;;;;;;5.90;1.87;;;;;;;12.97;58.30;99499.09;3548570;81;98718;-84
2022/03/30 09:30:34;;;;;;;5.90;2.10;;;;;;;13.78;56.60;99496.66;3550267;81;98790;-81
2022/03/30 09:35:38;;;;;;;7.40;2.40;;;;;;;14.59;54.25;99502.11;3521136;82;98267;-82
2022/03/30 09:40:48;;;;;;;5.27;2.17;;;;;;;15.07;51.72;99496.75;3549669;81;98488;-82
2022/03/30 09:46:06;;;;;;;5.28;1.70;;;;;;;14.94;47.27;99505.55;3532255;81;98410;-81
2022/03/30 09:51:08;;;;;;;27.17;4.28;;;;;;;15.36;48.99;99497.73;3533464;82;98752;-81
2022/03/30 09:56:17;;;;;;;7.20;2.40;;;;;;;16.02;48.61;99490.52;3537532;81;98895;-82
2022/03/30 10:01:22;;;;;;;6.33;2.07;;;;;;;16.79;46.08;99488.41;3546599;81;98568;-82
2022/03/30 10:06:35;;;;;;;7.62;1.77;;;;;;;17.26;45.66;99485.80;3547043;82;98670;-82
2022/03/30 10:11:38;;;;;;;6.73;1.60;;;;;;;17.76;44.88;99481.66;3543786;82;98972;-81
2022/03/30 10:16:40;;;;;;;8.18;2.15;;;;;;;17.97;41.16;99475.36;3524515;82;98593;-82
2022/03/30 10:22:19;;;;;;;5.20;2.10;;;;;;;18.03;40.89;99475.73;3535105;82;98544;-82
2022/03/30 10:27:40;;;;;;;6.17;1.70;;;;;;;17.75;41.06;99468.34;3549080;82;98659;-82
2022/03/30 10:32:41;;;;;;;7.70;2.00;;;;;;;18.09;39.26;99455.08;3547800;82;98859;-82
2022/03/30 10:37:46;;;;;;;5.73;1.57;;;;;;;17.73;38.07;99464.45;3562851;82;99050;-82
2022/03/30 10:42:57;;;;;;;4.87;1.50;;;;;;;17.81;39.30;99452.63;3535885;82;98589;-82
2022/03/30 10:48:23;;;;;;;4.55;1.40;;;;;;;18.18;37.88;99453.14;3541174;82;26232;-81
2022/03/30 10:53:38;;;;;;;6.58;1.30;;;;;;;18.61;37.25;99456.59;3537580;81;98638;-82
2022/03/30 10:58:58;;;;;;;4.70;1.40;;;;;;;18.50;35.95;99460.38;3547874;82;98358;-80
2022/03/30 11:04:19;;;;;;;8.68;1.40;;;;;;;18.43;33.37;99454.45;3526999;82;98590;-82
2022/03/30 11:09:23;;;;;;;4.70;1.85;;;;;;;17.89;34.23;99455.96;3543642;82;98725;-82
2022/03/30 11:14:40;;;;;;;4.85;1.47;;;;;;;17.73;33.05;99454.72;3547669;82;98616;-82
2022/03/30 11:19:50;;;;;;;;;;;;;;;17.56;34.47;99449.12;3548591;82;98810;-82
2022/03/30 11:25:08;;;;;;;3.25;1.27;;;;;;;17.93;32.12;99451.82;3557719;82;85289;-82
2022/03/30 11:30:17;;;;;;;5.90;1.60;;;;;;;17.87;33.95;99448.69;3557672;82;26579;-81
2022/03/30 11:35:24;;;;;;;4.37;1.43;;;;;;;18.11;33.60;99440.88;3549373;82;98561;-82
2022/03/30 11:40:25;;;;;;;7.28;1.62;;;;;;;17.89;34.06;99440.66;3546957;82;98478;-82
2022/03/30 11:45:29;;;;;;;9.13;2.17;;;;;;;18.10;33.79;99442.07;3549602;82;98826;-82
2022/03/30 11:50:50;;;;;;;6.10;1.95;;;;;;;18.08;32.27;99435.40;3562663;82;98531;-82
2022/03/30 11:56:08;;;;;;;3.90;1.42;;;;;;;17.30;32.15;99440.59;3552262;82;99157;-82
2022/03/30 12:01:16;;;;;;;3.02;1.30;;;;;;;17.30;32.15;99440.59;3561084;82;98627;-82
2022/03/30 12:06:20;;;;;;;6.27;1.43;;;;;;;16.54;32.04;99423.67;3532510;82;98132;-81
2022/03/30 12:11:22;;;;;;;4.00;1.35;;;;;;;16.54;32.04;99423.67;3548396;81;98778;-81
2022/03/30 12:16:26;;;;;;;2.95;1.00;;;;;;;16.78;32.74;99420.16;3530951;82;98266;-82
2022/03/30 12:21:34;;;;;;;5.37;1.35;;;;;;;16.60;31.73;99416.35;3543894;82;98677;-84
2022/03/30 12:26:34;;;;;;;3.52;0.95;;;;;;;16.47;30.22;99419.09;3543687;82;97922;-82
2022/03/30 12:31:39;;;;;;;3.92;1.02;;;;;;;15.84;30.83;99414.48;3536883;82;98785;-81
2022/03/30 12:36:43;;;;;;;6.40;0.90;;;;;;;15.65;32.49;99405.06;3539874;82;98636;-81
2022/03/30 12:41:44;;;;;;;4.47;0.70;;;;;;;15.74;30.72;99403.84;3552976;82;98342;-82
2022/03/30 12:46:46;;;;;;;3.30;1.15;;;;;;;15.39;28.74;99397.83;3551588;82;98496;-81
2022/03/30 12:51:47;;;;;;;2.97;1.17;;;;;;;14.82;30.37;99399.56;3546425;82;98926;-81
2022/03/30 12:56:48;;;;;;;9.10;1.73;;;;;;;14.56;31.59;99387.45;3545753;82;98742;-81
2022/03/30 13:01:50;;;;;;;4.57;1.20;;;;;;;14.12;29.91;99376.11;3541598;81;98834;-81
2022/03/30 13:07:13;;;;;;;4.50;0.93;;;;;;;13.69;30.09;99379.51;3559394;81;98719;-82
2022/03/30 13:12:14;;;;;;;4.47;1.47;;;;;;;13.27;30.38;99376.09;3544885;81;98782;-82
2022/03/30 13:17:17;;;;;;;5.07;1.27;;;;;;;13.48;30.32;99359.16;3551927;82;98610;-82
2022/03/30 13:22:18;;;;;;;3.40;1.13;;;;;;;13.48;30.61;99361.91;3519222;82;98716;-83
2022/03/30 13:27:19;;;;;;;2.37;0.80;;;;;;;13.28;30.89;99356.92;3551418;82;98600;-81
2022/03/30 13:32:21;;;;;;;2.83;1.07;;;;;;;13.13;30.89;99351.48;3546302;82;98731;-82
2022/03/30 13:37:22;;;;;;;4.80;1.90;;;;;;;13.20;32.32;99355.50;3545858;82;98706;-84
2022/03/30 13:42:23;;;;;;;3.23;1.23;;;;;;;13.26;32.30;99353.22;3545437;82;98353;-81
2022/03/30 13:47:27;;;;;;;6.53;2.00;;;;;;;13.29;32.83;99357.89;3536786;82;98435;-82
2022/03/30 13:52:29;;;;;;;3.37;1.25;;;;;;;13.13;33.43;99351.48;3541065;82;98236;-83
2022/03/30 13:57:30;;;;;;;4.00;1.00;;;;;;;13.04;32.29;99356.13;3547817;82;99131;-83
2022/03/30 14:02:33;;;;;;;3.00;0.93;;;;;;;13.03;34.01;99358.71;3530691;82;99084;-84
2022/03/30 14:07:34;;;;;;;5.03;1.30;;;;;;;12.84;32.58;99345.58;3520532;82;98719;-83
2022/03/30 14:12:35;;;;;;;3.03;1.20;;;;;;;12.77;33.67;99342.94;3546811;82;98687;-82
2022/03/30 14:17:36;;;;;;;8.77;1.30;;;;;;;12.77;33.29;99349.84;3553779;82;33280;-82
2022/03/30 14:22:38;;;;;;;2.40;1.00;;;;;;;12.52;32.53;99339.75;3536647;82;98625;-82
2022/03/30 14:27:39;;;;;;;5.67;2.00;;;;;;;12.29;32.23;99344.41;3561608;82;98742;-82
2022/03/30 14:32:42;;;;;;;3.87;1.40;;;;;;;12.03;32.35;99345.91;3544357;82;98579;-84
2022/03/30 14:37:43;;;;;;;4.27;1.70;;;;;;;11.81;33.64;99347.36;3560080;82;98702;-82
2022/03/30 14:42:44;;;;;;;5.80;1.60;;;;;;;11.43;34.69;99306.39;3550885;82;98801;-83
2022/03/30 14:47:46;;;;;;;6.17;2.00;;;;;;;11.62;35.69;99328.65;3544796;82;33619;-83
2022/03/30 14:52:49;;;;;;;6.90;2.08;;;;;;;11.48;35.94;99332.13;3546633;82;98550;-81
2022/03/30 14:57:52;;;;;;;5.50;1.90;;;;;;;10.94;36.73;99326.12;3553745;82;98580;-84
2022/03/30 15:02:53;;;;;;;12.18;8.30;;;;;;;10.65;37.31;99328.91;3554342;82;99167;-84
2022/03/30 15:07:55;;;;;;;14.57;9.60;;;;;;;10.39;37.94;99329.46;3559340;82;98752;-83
2022/03/30 15:12:57;;;;;;;7.67;2.53;;;;;;;10.34;38.32;99328.50;3536660;82;98786;-81
2022/03/30 15:17:58;;;;;;;4.78;2.00;;;;;;;10.16;38.40;99325.08;3526629;82;26006;-83
2022/03/30 15:22:59;;;;;;;18.17;8.83;;;;;;;10.06;38.71;99323.95;3555300;82;98539;-83
2022/03/30 15:28:00;;;;;;;10.60;3.43;;;;;;;9.88;38.48;99334.79;3490322;84;98726;-83
2022/03/30 15:33:01;;;;;;;7.97;2.87;;;;;;;9.86;39.58;99333.05;3458199;84;98693;-82
2022/03/30 15:38:02;;;;;;;9.70;3.30;;;;;;;9.77;39.29;99332.06;3461437;84;98305;-83
2022/03/30 15:43:03;;;;;;;5.83;2.10;;;;;;;9.58;39.11;99331.16;3424254;85;98346;-82
2022/03/30 15:48:07;;;;;;;6.93;2.10;;;;;;;9.39;39.71;99334.31;3425697;85;33527;-82
2022/03/30 15:53:07;;;;;;;6.70;3.27;;;;;;;9.31;39.61;99337.47;3453575;84;98194;-84
2022/03/30 15:58:08;;;;;;;4.63;1.83;;;;;;;9.18;39.82;99339.86;3457465;84;98220;-82
2022/03/30 16:03:10;;;;;;;10.53;3.23;;;;;;;9.01;40.00;99337.92;3451042;84;98267;-84
2022/03/30 16:13:32;;;;;;;12.67;3.80;;;;;;;8.64;39.57;99349.84;3474555;83;98406;-84
2022/03/30 16:18:33;;;;;;;16.53;7.13;;;;;;;8.49;39.99;99352.36;3491168;84;98598;-84
2022/03/30 16:23:34;;;;;;;9.90;4.33;;;;;;;8.43;40.26;99357.23;3478911;83;98245;-83
2022/03/30 16:28:36;;;;;;;10.83;4.40;;;;;;;8.33;40.57;99355.23;3458610;84;98223;-85
2022/03/30 16:33:37;;;;;;;17.17;6.37;;;;;;;8.24;42.20;99363.06;3466630;84;98551;-82
2022/03/30 16:38:39;;;;;;;20.23;8.23;;;;;;;8.03;43.26;99367.06;3471169;84;98565;-83
2022/03/30 16:43:42;;;;;;;20.35;8.83;;;;;;;7.54;45.84;99358.59;3475796;84;98457;-83
2022/03/30 16:48:45;;;;;;;19.43;10.17;;;;;;;7.54;45.84;99358.59;3484995;84;98568;-83
2022/03/30 16:53:53;;;;;;;20.30;10.67;;;;;;;7.49;46.80;99375.37;3442546;84;98323;-84
2022/03/30 16:58:54;;;;;;;23.32;9.80;;;;;;;7.25;47.68;99380.88;3458593;84;98723;-84
2022/03/30 17:03:57;;;;;;;23.92;10.20;;;;;;;7.14;48.59;99378.64;3465893;84;98374;-84
2022/03/30 17:14:23;;;;;;;22.03;10.40;;;;;;;6.77;49.62;99395.70;3468270;84;98657;-85
2022/03/30 17:19:25;;;;;;;51.33;24.03;;;;;;;6.56;50.00;99409.75;3442554;84;97859;-84
2022/03/30 17:24:28;;;;;;;20.43;9.77;;;;;;;6.31;50.72;99406.74;3468322;84;98445;-85
2022/03/30 17:29:29;;;;;;;21.30;9.87;;;;;;;6.13;51.97;99418.62;3468563;84;99128;-83
2022/03/30 17:34:30;;;;;;;19.63;9.23;;;;;;;6.02;51.71;99420.42;3454134;84;98343;-84
2022/03/30 17:39:31;;;;;;;17.83;9.07;;;;;;;5.85;52.51;99423.12;3464273;84;98421;-84
2022/03/30 17:44:35;;;;;;;15.95;8.03;;;;;;;5.68;53.05;99428.32;3468057;85;98584;-85
2022/03/30 17:54:55;;;;;;;17.67;9.08;;;;;;;5.38;53.72;99423.38;3438351;84;98840;-84
2022/03/30 17:59:59;;;;;;;17.13;8.03;;;;;;;5.15;54.11;99426.15;3456681;84;34267;-84
2022/03/30 18:05:00;;;;;;;19.57;8.07;;;;;;;5.03;54.42;99429.04;3409594;86;98370;-83
2022/03/30 18:10:06;;;;;;;21.63;8.90;;;;;;;4.92;54.67;99436.84;3429727;84;98413;-83
2022/03/30 18:15:19;;;;;;;21.87;9.67;;;;;;;4.77;54.90;99433.64;3394956;85;98522;-84
2022/03/30 18:20:20;;;;;;;17.10;8.50;;;;;;;4.69;55.09;99440.91;3364751;85;98689;-83
2022/03/30 18:25:22;;;;;;;21.83;8.07;;;;;;;4.65;54.86;99448.22;3417811;85;98678;-85
2022/03/30 18:30:27;;;;;;;19.57;9.00;;;;;;;4.54;55.58;99460.08;3412627;85;33220;-84
2022/03/30 18:35:31;;;;;;;27.00;9.93;;;;;;;4.45;55.70;99460.30;3420175;85;98344;-84
2022/03/30 18:40:34;;;;;;;15.70;6.37;;;;;;;4.37;56.02;99462.66;3425229;85;98514;-85
2022/03/30 18:45:39;;;;;;;17.20;6.70;;;;;;;4.24;56.06;99471.33;3359559;85;98610;-85
2022/03/30 18:50:54;;;;;;;14.00;6.67;;;;;;;4.15;56.02;99474.86;3433216;85;98445;-85
2022/03/30 18:55:53;;;;;;;24.30;10.90;;;;;;;4.05;56.36;99483.58;3411530;84;98666;-83
2022/03/30 19:00:57;;;;;;;24.07;9.50;;;;;;;3.94;56.53;99479.25;3430616;84;98712;-85
2022/03/30 19:06:08;;;;;;;13.78;6.78;;;;;;;3.85;56.44;99494.20;3478499;82;98103;-84
2022/03/30 19:11:10;;;;;;;16.20;6.40;;;;;;;3.73;56.88;99498.41;3541129;80;98421;-86
2022/03/30 19:16:14;;;;;;;14.77;6.30;;;;;;;3.62;57.11;99492.73;3544233;82;98618;-85
2022/03/30 19:21:16;;;;;;;15.27;5.87;;;;;;;3.55;57.52;99493.13;3529778;81;99089;-85
2022/03/30 19:26:27;;;;;;;13.40;5.80;;;;;;;3.43;57.77;99496.73;3429221;84;98548;-87
2022/03/30 19:31:28;;;;;;;14.20;5.43;;;;;;;3.35;58.45;99493.62;3426748;83;98836;-84
2022/03/30 19:36:29;;;;;;;15.40;6.60;;;;;;;3.23;58.73;99503.21;3501216;83;33222;-87
2022/03/30 19:41:29;;;;;;;16.10;5.80;;;;;;;3.17;58.94;99509.28;3452363;84;98298;-83
2022/03/30 19:46:38;;;;;;;12.23;5.10;;;;;;;3.10;59.21;99501.73;3446338;84;97819;-86
2022/03/30 19:51:39;;;;;;;19.37;6.40;;;;;;;3.04;59.64;99512.64;3443010;84;98872;-86
2022/03/30 19:56:40;;;;;;;16.40;6.53;;;;;;;2.93;59.68;99517.56;3438862;84;98530;-87
2022/03/30 20:01:43;;;;;;;14.90;7.00;;;;;;;2.81;59.95;99519.80;3393075;85;98539;-84
2022/03/30 20:06:46;;;;;;;12.80;5.47;;;;;;;2.71;59.83;99529.00;3443504;85;98461;-84
2022/03/30 20:11:49;;;;;;;10.27;4.37;;;;;;;2.62;60.55;99527.80;3424505;84;98242;-92
2022/03/30 20:16:51;;;;;;;9.97;4.37;;;;;;;2.57;60.32;99534.05;3448781;84;97858;-84
2022/03/30 20:21:52;;;;;;;11.97;4.27;;;;;;;2.47;60.54;99533.95;3428844;85;98455;-84
2022/03/30 20:26:53;;;;;;;11.20;4.83;;;;;;;2.41;60.49;99531.84;3473357;84;98527;-85
2022/03/30 20:31:57;;;;;;;9.10;4.07;;;;;;;2.26;60.36;99521.16;3454229;84;98451;-85
2022/03/30 20:36:59;;;;;;;11.27;3.90;;;;;;;2.27;60.73;99540.38;3444461;84;98238;-84
2022/03/30 20:42:03;;;;;;;12.43;4.80;;;;;;;2.22;60.34;99528.39;3440191;85;98452;-88
2022/03/30 20:47:04;;;;;;;11.47;4.37;;;;;;;2.16;60.44;99536.55;3457116;85;98315;-85
2022/03/30 20:52:12;;;;;;;10.78;3.80;;;;;;;2.09;60.39;99533.61;3453955;84;98391;-86
2022/03/30 20:57:13;;;;;;;11.40;3.90;;;;;;;2.07;60.04;99526.97;3463412;84;98565;-85
2022/03/30 21:02:14;;;;;;;11.10;3.03;;;;;;;2.01;60.16;99531.83;3455919;84;98918;-87
2022/03/30 21:07:15;;;;;;;8.03;3.20;;;;;;;2.00;59.98;99535.68;3458718;85;98518;-85
2022/03/30 21:12:16;;;;;;;9.83;3.00;;;;;;;1.96;59.80;99533.41;3432490;85;97999;-84
2022/03/30 21:17:17;;;;;;;11.07;2.57;;;;;;;1.92;59.97;99535.80;3546651;82;98387;-94
2022/03/30 21:22:18;;;;;;;6.70;2.50;;;;;;;1.88;59.66;99528.92;3554407;81;98740;-85
2022/03/30 21:27:20;;;;;;;6.90;2.40;;;;;;;1.77;60.01;99518.30;3562692;81;98392;-87
2022/03/30 21:32:21;;;;;;;8.05;3.72;;;;;;;1.79;60.30;99530.15;3545716;81;98375;-86
2022/03/30 21:37:22;;;;;;;8.80;2.73;;;;;;;1.74;60.08;99529.83;3541112;81;98326;-85
2022/03/30 21:42:23;;;;;;;12.17;4.70;;;;;;;1.70;60.16;99534.34;3537088;81;98150;-86
2022/03/30 21:47:24;;;;;;;11.03;3.30;;;;;;;1.65;60.25;99531.08;3547296;81;98333;-86
2022/03/30 21:52:25;;;;;;;11.33;4.50;;;;;;;1.60;60.41;99521.23;3532860;81;98339;-86
2022/03/30 21:57:27;;;;;;;7.10;2.70;;;;;;;1.55;60.86;99522.84;3550370;82;98502;-88
2022/03/30 22:02:28;;;;;;;9.23;3.03;;;;;;;1.51;60.88;99521.13;3549122;81;98455;-87
2022/03/30 22:07:29;;;;;;;7.17;3.00;;;;;;;1.48;61.68;99524.53;3533358;82;98301;-87
2022/03/30 22:12:30;;;;;;;7.63;3.03;;;;;;;1.44;61.87;99520.36;3520410;83;98045;-87
2022/03/30 22:17:31;;;;;;;9.98;3.40;;;;;;;1.39;62.17;99526.55;3513597;83;97864;-87
2022/03/30 22:22:33;;;;;;;10.28;4.50;;;;;;;1.33;62.05;99523.28;3528398;81;98111;-86
2022/03/30 22:27:34;;;;;;;9.80;3.47;;;;;;;1.26;62.55;99524.97;3515154;82;98583;-87
2022/03/30 22:37:54;;;;;;;26.07;8.63;;;;;;;1.07;63.78;99524.70;3518360;82;98385;-88
2022/03/30 22:42:58;;;;;;;24.53;9.13;;;;;;;0.99;64.17;99529.08;3545054;83;98682;-86
2022/03/30 22:47:58;;;;;;;23.57;7.50;;;;;;;0.91;63.99;99522.41;3520130;83;28633;-85
2022/03/30 22:52:59;;;;;;;22.93;7.23;;;;;;;0.81;64.03;99515.50;3508790;83;98514;-85
2022/03/30 22:58:00;;;;;;;18.53;6.47;;;;;;;0.69;64.43;99516.02;3504225;83;98325;-87
2022/03/30 23:03:02;;;;;;;15.80;6.50;;;;;;;0.59;65.06;99520.50;3506606;83;98678;-87
2022/03/30 23:08:12;;;;;;;16.33;6.13;;;;;;;0.51;65.54;99518.67;3535143;82;98414;-88
2022/03/30 23:13:23;;;;;;;17.25;6.12;;;;;;;0.40;65.35;99519.63;3527719;82;98987;-85
2022/03/30 23:18:26;;;;;;;13.40;4.97;;;;;;;0.34;65.51;99514.77;3523174;82;26380;-85
2022/03/30 23:23:27;;;;;;;13.80;5.33;;;;;;;0.25;66.17;99516.75;3539887;80;98213;-85
2022/03/30 23:28:28;;;;;;;14.37;5.27;;;;;;;0.15;66.18;99519.84;3540881;81;98281;-86
2022/03/30 23:33:28;;;;;;;16.83;4.53;;;;;;;0.10;66.46;99512.73;3542956;82;98441;-85
2022/03/30 23:38:29;;;;;;;12.97;4.60;;;;;;;0.04;67.07;99511.34;3529475;81;98577;-86
2022/03/30 23:43:30;;;;;;;9.08;3.75;;;;;;;0.01;67.35;99508.52;3523712;82;98613;-86
2022/03/30 23:48:31;;;;;;;12.57;4.63;;;;;;;-0.05;67.74;99504.42;3546345;82;31642;-85
2022/03/30 23:53:33;;;;;;;10.70;3.80;;;;;;;-0.08;67.29;99503.72;3538871;82;98500;-85
2022/03/30 23:58:34;;;;;;;10.10;3.90;;;;;;;-0.12;67.60;99504.94;3540879;81;98587;-85
